KFBL/FBL METAR and TAF weather

Enter ICAO airport designator
Station Type Date Time Source
KFBL METAR 2022/06/30 13:15 UTC NOAA

KFBL 301315Z AUTO 14005KT 10SM CLR 22/18 A2987 RMK AO2 LTG DSNT N


Station Type Date Time Source
KFBL Decoded METAR 2022/06/30 13:15 UTC NOAA

Faribault, Faribault Municipal Airport, MN, United States (KFBL) 44-20N 093-19W
Jun 30, 2022 - 09:15 AM EDT / 2022.06.30 1315 UTC
Wind: from the SE (140 degrees) at 6 MPH (5 KT):0
Visibility: 10 mile(s):0
Sky conditions: clear
Weather: Lightning observed
Temperature: 71 F (22 C)
Dew Point: 64 F (18 C)
Relative Humidity: 78%
Pressure (altimeter): 29.87 in. Hg (1011 hPa)
ob: KFBL 301315Z AUTO 14005KT 10SM CLR 22/18 A2987 RMK AO2 LTG DSNT N
cycle: 13

Station Type Date Time Source
KFBL TAF UTC NOAA

Error!

Example: see airport list